createdAt,value
2022-10-13T00:00:15.958Z,56.70
2022-10-13T00:02:43.821Z,56.70
2022-10-13T00:05:12.017Z,56.70
2022-10-13T00:07:39.817Z,56.60
2022-10-13T00:10:08.416Z,56.60
2022-10-13T00:12:38.294Z,56.70
2022-10-13T00:15:08.183Z,56.70
2022-10-13T00:17:37.256Z,56.70
2022-10-13T00:20:05.730Z,56.70
2022-10-13T00:22:33.836Z,56.70
2022-10-13T00:25:01.701Z,56.80
2022-10-13T00:27:29.484Z,56.70
2022-10-13T00:29:58.664Z,56.70
2022-10-13T00:32:26.513Z,56.70
2022-10-13T00:34:54.438Z,56.70
2022-10-13T00:37:22.246Z,56.70
2022-10-13T00:39:50.056Z,56.70
2022-10-13T00:42:18.345Z,56.90
2022-10-13T00:45:08.045Z,56.90
2022-10-13T00:47:39.722Z,57.00
2022-10-13T00:50:11.540Z,56.90
2022-10-13T00:52:41.286Z,56.90
2022-10-13T00:55:12.585Z,57.00
2022-10-13T00:57:42.249Z,56.90
2022-10-13T01:00:13.125Z,56.90
2022-10-13T01:02:41.177Z,56.90
2022-10-13T01:05:09.733Z,56.80
2022-10-13T01:07:37.609Z,56.70
2022-10-13T01:10:06.352Z,56.70
2022-10-13T01:12:45.308Z,56.60
2022-10-13T01:15:23.172Z,56.70
2022-10-13T01:18:01.407Z,56.60
2022-10-13T01:20:59.185Z,56.50
2022-10-13T01:23:56.658Z,56.60
2022-10-13T01:27:04.701Z,56.40
2022-10-13T01:30:04.513Z,56.50
2022-10-13T01:32:37.898Z,56.40
2022-10-13T01:35:10.650Z,56.20
2022-10-13T01:37:46.718Z,56.40
2022-10-13T01:40:19.549Z,56.90
2022-10-13T01:42:54.863Z,56.50
2022-10-13T01:45:30.194Z,56.50
2022-10-13T01:48:00.438Z,56.50
2022-10-13T01:50:29.290Z,56.40
2022-10-13T01:52:59.317Z,56.40
2022-10-13T01:55:28.893Z,56.40
2022-10-13T01:57:56.972Z,56.40
2022-10-13T02:00:27.038Z,56.30
2022-10-13T02:03:07.279Z,56.40
2022-10-13T02:05:49.175Z,56.50
2022-10-13T02:08:25.662Z,57.00
2022-10-13T02:10:59.743Z,56.40
2022-10-13T02:13:30.318Z,56.40
2022-10-13T02:16:02.469Z,56.40
2022-10-13T02:18:33.641Z,56.40
2022-10-13T02:21:02.490Z,56.30
2022-10-13T02:23:30.777Z,56.20
2022-10-13T02:26:00.037Z,56.20
2022-10-13T02:28:29.074Z,56.20
2022-10-13T02:30:57.002Z,56.20
2022-10-13T02:33:26.213Z,56.10
2022-10-13T02:35:53.997Z,56.20
2022-10-13T02:38:22.180Z,56.30
2022-10-13T02:40:50.088Z,56.30
2022-10-13T02:43:17.914Z,56.40
2022-10-13T02:45:45.713Z,56.30
2022-10-13T02:48:13.542Z,56.40
2022-10-13T02:50:42.704Z,56.30
2022-10-13T02:53:10.565Z,56.30
2022-10-13T02:55:38.372Z,56.30
2022-10-13T02:58:06.234Z,56.30
2022-10-13T03:00:34.124Z,56.30
2022-10-13T03:03:02.001Z,56.30
2022-10-13T03:05:29.808Z,56.30
2022-10-13T03:07:58.969Z,56.30
2022-10-13T03:10:27.953Z,56.30
2022-10-13T03:12:56.028Z,56.30
2022-10-13T03:15:24.133Z,56.30
2022-10-13T03:17:52.040Z,56.30
2022-10-13T03:20:19.997Z,56.20
2022-10-13T03:22:49.972Z,56.20
2022-10-13T03:25:19.392Z,56.20
2022-10-13T03:27:47.478Z,56.30
2022-10-13T03:30:15.341Z,56.30
2022-10-13T03:32:43.440Z,56.30
2022-10-13T03:35:11.256Z,56.30
2022-10-13T03:37:39.240Z,56.30
2022-10-13T03:40:08.342Z,56.30
2022-10-13T03:42:39.062Z,56.30
2022-10-13T03:45:08.346Z,56.40
2022-10-13T03:47:36.349Z,56.40
2022-10-13T03:50:05.426Z,56.40
2022-10-13T03:52:33.272Z,56.60
2022-10-13T03:55:01.057Z,56.70
2022-10-13T03:57:29.010Z,56.80
2022-10-13T03:59:58.352Z,57.00
2022-10-13T04:02:26.213Z,57.80
2022-10-13T04:04:54.188Z,57.40
2022-10-13T04:07:22.010Z,57.70
2022-10-13T04:09:50.044Z,57.90
2022-10-13T04:12:20.887Z,58.10
2022-10-13T04:14:49.315Z,58.20
2022-10-13T04:17:18.513Z,58.40
2022-10-13T04:19:46.373Z,58.50
2022-10-13T04:22:14.209Z,58.60
2022-10-13T04:24:42.167Z,58.70
2022-10-13T04:27:10.113Z,58.80
2022-10-13T04:29:37.905Z,58.70
2022-10-13T04:32:05.938Z,58.80
2022-10-13T04:34:35.304Z,58.80
2022-10-13T04:37:03.157Z,58.90
2022-10-13T04:39:31.038Z,58.90
2022-10-13T04:41:59.028Z,58.90
2022-10-13T04:44:26.970Z,58.90
2022-10-13T04:46:54.809Z,59.00
2022-10-13T04:49:22.619Z,59.00
2022-10-13T04:51:51.783Z,59.00
2022-10-13T04:54:19.621Z,59.00
2022-10-13T04:56:47.792Z,59.10
2022-10-13T04:59:15.768Z,59.00
2022-10-13T05:01:43.588Z,59.00
2022-10-13T05:04:11.874Z,59.10
2022-10-13T05:07:05.283Z,59.10
2022-10-13T05:09:30.623Z,59.10
2022-10-13T05:11:58.436Z,59.10
2022-10-13T05:14:26.609Z,59.10
2022-10-13T05:16:54.540Z,59.20
2022-10-13T05:19:22.387Z,59.20
2022-10-13T05:21:50.215Z,59.20
2022-10-13T05:24:18.057Z,59.30
2022-10-13T05:26:47.202Z,59.30
2022-10-13T05:29:15.073Z,59.40
2022-10-13T05:31:42.917Z,59.40
2022-10-13T05:34:11.227Z,59.40
2022-10-13T05:36:39.025Z,59.50
2022-10-13T05:39:08.411Z,59.50
2022-10-13T05:41:36.258Z,59.50
2022-10-13T05:44:09.339Z,59.60
2022-10-13T05:46:37.697Z,59.60
2022-10-13T05:49:05.546Z,59.60
2022-10-13T05:51:38.996Z,59.60
2022-10-13T05:54:11.129Z,59.70
2022-10-13T05:56:42.318Z,59.70
2022-10-13T05:59:14.494Z,59.80
2022-10-13T06:01:43.363Z,59.80
2022-10-13T06:04:18.368Z,59.80
2022-10-13T06:06:46.785Z,59.90
2022-10-13T06:09:14.754Z,59.90
2022-10-13T06:11:42.581Z,60.00
2022-10-13T06:14:11.737Z,60.00
2022-10-13T06:16:39.549Z,60.00
2022-10-13T06:19:07.362Z,60.10
2022-10-13T06:21:36.268Z,60.10
2022-10-13T06:24:04.410Z,60.10
2022-10-13T06:26:32.205Z,60.20
2022-10-13T06:29:00.145Z,60.20
2022-10-13T06:31:29.676Z,60.30
2022-10-13T06:33:57.546Z,60.30
2022-10-13T06:36:25.580Z,60.30
2022-10-13T06:38:53.420Z,60.30
2022-10-13T06:41:21.545Z,60.40
2022-10-13T06:43:49.381Z,60.40
2022-10-13T06:46:17.261Z,60.50
2022-10-13T06:48:46.399Z,60.60
2022-10-13T06:51:14.352Z,60.70
2022-10-13T06:53:42.158Z,60.70
2022-10-13T06:56:10.197Z,61.50
2022-10-13T06:58:38.986Z,60.90
2022-10-13T07:01:07.360Z,60.90
2022-10-13T07:03:35.192Z,60.90
2022-10-13T07:06:05.853Z,60.80
2022-10-13T07:08:34.583Z,61.00
2022-10-13T07:11:11.640Z,60.90
2022-10-13T07:13:46.280Z,61.00
2022-10-13T07:16:15.706Z,60.90
2022-10-13T07:18:43.823Z,61.00
2022-10-13T07:21:13.144Z,61.00
2022-10-13T07:23:41.174Z,61.00
2022-10-13T07:26:09.606Z,61.00
2022-10-13T07:28:37.740Z,61.00
2022-10-13T07:31:10.892Z,60.90
2022-10-13T07:33:39.308Z,61.10
2022-10-13T07:36:08.257Z,61.10
2022-10-13T07:38:37.656Z,61.20
2022-10-13T07:41:07.471Z,61.30
2022-10-13T07:43:35.354Z,61.40
2022-10-13T07:46:05.493Z,61.40
2022-10-13T07:48:34.560Z,61.40
2022-10-13T07:51:06.136Z,61.40
2022-10-13T07:53:35.232Z,61.50
2022-10-13T07:56:06.137Z,61.40
2022-10-13T07:58:34.009Z,61.50
2022-10-13T08:01:03.070Z,61.50
2022-10-13T08:03:31.376Z,61.70
2022-10-13T08:06:00.165Z,62.00
2022-10-13T08:08:28.569Z,62.10
2022-10-13T08:10:56.570Z,62.40
2022-10-13T08:13:25.698Z,62.70
2022-10-13T08:15:53.627Z,62.90
2022-10-13T08:18:21.573Z,63.00
2022-10-13T08:20:49.394Z,63.10
2022-10-13T08:23:17.213Z,63.00
2022-10-13T08:25:45.666Z,63.00
2022-10-13T08:28:19.829Z,63.10
2022-10-13T08:30:50.419Z,63.50
2022-10-13T08:33:18.405Z,64.00
2022-10-13T08:35:46.301Z,64.50
2022-10-13T08:38:14.348Z,64.90
2022-10-13T08:40:46.688Z,65.30
2022-10-13T08:43:18.135Z,65.50
2022-10-13T08:45:46.791Z,65.40
2022-10-13T08:48:20.162Z,65.40
2022-10-13T08:50:50.458Z,65.00
2022-10-13T08:53:24.360Z,65.20
2022-10-13T08:55:56.342Z,65.30
2022-10-13T08:58:26.625Z,65.40
2022-10-13T09:01:03.575Z,65.10
2022-10-13T09:03:33.017Z,65.00
2022-10-13T09:06:11.533Z,65.10
2022-10-13T09:08:44.313Z,65.10
2022-10-13T09:11:13.771Z,65.10
2022-10-13T09:13:41.695Z,64.80
2022-10-13T09:16:09.856Z,65.60
2022-10-13T09:18:39.525Z,65.20
2022-10-13T09:21:12.637Z,65.40
2022-10-13T09:23:41.983Z,65.10
2022-10-13T09:26:18.792Z,64.50
2022-10-13T09:28:47.129Z,64.00
2022-10-13T09:31:18.531Z,64.70
2022-10-13T09:33:57.503Z,66.10
2022-10-13T09:36:25.331Z,67.30
2022-10-13T09:39:15.010Z,68.60
2022-10-13T09:41:44.345Z,69.20
2022-10-13T09:44:15.630Z,70.00
2022-10-13T09:46:49.848Z,69.10
2022-10-13T09:49:34.567Z,67.60
2022-10-13T09:52:04.682Z,65.90
2022-10-13T09:54:43.291Z,65.00
2022-10-13T09:57:21.710Z,63.80
2022-10-13T09:59:51.991Z,63.20
2022-10-13T10:02:32.684Z,63.50
2022-10-13T10:05:08.428Z,64.20
2022-10-13T10:07:36.247Z,65.50
2022-10-13T10:10:09.192Z,65.80
2022-10-13T10:12:40.673Z,66.50
2022-10-13T10:15:21.413Z,67.60
2022-10-13T10:17:55.250Z,71.40
2022-10-13T10:20:42.814Z,75.00
2022-10-13T10:23:17.322Z,75.70
2022-10-13T10:25:50.146Z,71.60
2022-10-13T10:28:36.741Z,67.80
2022-10-13T10:31:14.679Z,64.70
2022-10-13T10:33:56.772Z,62.60
2022-10-13T10:36:33.788Z,61.10
2022-10-13T10:39:09.741Z,60.50
2022-10-13T10:41:45.124Z,60.10
2022-10-13T10:44:16.780Z,59.70
2022-10-13T10:46:48.775Z,59.60
2022-10-13T10:49:20.785Z,59.60
2022-10-13T10:51:50.881Z,59.60
2022-10-13T10:54:31.365Z,59.70
2022-10-13T10:57:05.865Z,59.60
2022-10-13T10:59:51.299Z,59.80
2022-10-13T11:02:44.496Z,60.00
2022-10-13T11:05:13.606Z,60.30
2022-10-13T11:07:59.627Z,60.50
2022-10-13T11:10:29.065Z,60.40
2022-10-13T11:13:25.732Z,60.40
2022-10-13T11:15:53.682Z,60.20
2022-10-13T11:18:55.067Z,60.30
2022-10-13T11:21:22.932Z,60.60
2022-10-13T11:23:52.256Z,61.40
2022-10-13T11:26:33.186Z,63.50
2022-10-13T11:29:01.112Z,65.50
2022-10-13T11:31:35.932Z,67.60
2022-10-13T11:34:05.004Z,69.70
2022-10-13T11:36:52.506Z,69.70
2022-10-13T11:40:01.794Z,67.40
2022-10-13T11:42:58.520Z,66.00
2022-10-13T11:45:39.244Z,65.00
2022-10-13T11:48:31.543Z,64.80
2022-10-13T11:51:16.614Z,64.70
2022-10-13T11:53:53.562Z,64.10
2022-10-13T11:56:32.640Z,63.10
2022-10-13T11:59:00.477Z,62.90
2022-10-13T12:01:28.382Z,64.30
2022-10-13T12:03:57.348Z,65.30
2022-10-13T12:06:33.598Z,65.30
2022-10-13T12:09:04.754Z,64.50
2022-10-13T12:11:36.399Z,63.80
2022-10-13T12:14:08.004Z,63.10
2022-10-13T12:16:35.801Z,62.70
2022-10-13T12:19:11.241Z,62.20
2022-10-13T12:21:51.152Z,61.60
2022-10-13T12:24:18.980Z,61.20
2022-10-13T12:26:48.133Z,61.10
2022-10-13T12:29:17.252Z,61.10
2022-10-13T12:31:47.150Z,61.20
2022-10-13T12:34:21.554Z,61.30
2022-10-13T12:36:56.694Z,61.20
2022-10-13T12:39:26.229Z,61.10
2022-10-13T12:41:56.929Z,61.10
2022-10-13T12:44:27.172Z,61.10
2022-10-13T12:46:58.687Z,61.10
2022-10-13T12:49:28.610Z,60.80
2022-10-13T12:52:05.165Z,60.70
2022-10-13T12:54:35.297Z,60.70
2022-10-13T12:57:08.255Z,60.70
2022-10-13T12:59:42.502Z,60.90
2022-10-13T13:02:21.382Z,60.90
2022-10-13T13:04:49.482Z,60.90
2022-10-13T13:07:29.630Z,61.00
2022-10-13T13:10:17.436Z,60.90
2022-10-13T13:12:47.828Z,60.90
2022-10-13T13:15:34.787Z,61.00
2022-10-13T13:18:30.381Z,61.20
2022-10-13T13:20:58.993Z,61.40
2022-10-13T13:23:33.206Z,61.60
2022-10-13T13:26:03.105Z,61.70
2022-10-13T13:28:33.272Z,61.80
2022-10-13T13:31:01.361Z,61.70
2022-10-13T13:33:29.208Z,61.60
2022-10-13T13:35:57.403Z,61.70
2022-10-13T13:38:25.208Z,61.70
2022-10-13T13:40:53.013Z,61.70
2022-10-13T13:43:20.792Z,61.60
2022-10-13T13:45:50.088Z,61.60
2022-10-13T13:48:17.889Z,61.60
2022-10-13T13:50:45.695Z,61.70
2022-10-13T13:53:13.539Z,61.80
2022-10-13T13:55:42.332Z,61.80
2022-10-13T13:58:10.470Z,61.80
2022-10-13T14:00:38.821Z,61.70
2022-10-13T14:03:07.996Z,61.70
2022-10-13T14:05:39.859Z,61.70
2022-10-13T14:08:08.439Z,61.80
2022-10-13T14:10:36.409Z,61.90
2022-10-13T14:13:04.221Z,62.00
2022-10-13T14:15:32.143Z,62.00
2022-10-13T14:17:59.977Z,61.90
2022-10-13T14:20:29.216Z,62.00
2022-10-13T14:22:57.020Z,61.90
2022-10-13T14:25:25.046Z,61.80
2022-10-13T14:27:53.151Z,61.70
2022-10-13T14:30:21.054Z,61.70
2022-10-13T14:32:48.859Z,61.50
2022-10-13T14:35:16.766Z,61.50
2022-10-13T14:37:45.904Z,61.40
2022-10-13T14:40:13.701Z,61.50
2022-10-13T14:42:42.466Z,61.50
2022-10-13T14:45:12.997Z,61.50
2022-10-13T14:47:40.835Z,61.60
2022-10-13T14:50:09.483Z,61.60
2022-10-13T14:52:37.300Z,61.60
2022-10-13T14:55:07.146Z,61.70
2022-10-13T14:57:34.970Z,61.70
2022-10-13T15:00:02.872Z,61.70
2022-10-13T15:02:31.085Z,61.80
2022-10-13T15:04:58.881Z,61.80
2022-10-13T15:07:26.744Z,61.80
2022-10-13T15:10:04.882Z,61.90
2022-10-13T15:12:34.612Z,61.90
2022-10-13T15:15:02.494Z,62.60
2022-10-13T15:17:33.116Z,61.90
2022-10-13T15:20:01.328Z,61.90
2022-10-13T15:22:29.133Z,61.90
2022-10-13T15:24:56.937Z,61.80
2022-10-13T15:27:24.869Z,61.70
2022-10-13T15:29:54.058Z,61.60
2022-10-13T15:32:22.140Z,61.50
2022-10-13T15:34:50.176Z,62.20
2022-10-13T15:37:17.987Z,61.30
2022-10-13T15:39:45.764Z,61.30
2022-10-13T15:42:13.564Z,61.30
2022-10-13T15:45:08.059Z,61.20
2022-10-13T15:47:30.841Z,61.10
2022-10-13T15:49:58.637Z,61.10
2022-10-13T15:52:30.860Z,61.00
2022-10-13T15:55:01.581Z,61.00
2022-10-13T15:57:29.373Z,60.90
2022-10-13T15:59:57.210Z,61.00
2022-10-13T16:02:25.071Z,61.00
2022-10-13T16:04:54.342Z,61.00
2022-10-13T16:07:22.125Z,61.10
2022-10-13T16:09:49.917Z,61.00
2022-10-13T16:12:18.033Z,60.90
2022-10-13T16:14:46.253Z,60.90
2022-10-13T16:17:14.077Z,60.90
2022-10-13T16:19:41.913Z,60.90
2022-10-13T16:22:11.141Z,60.80
2022-10-13T16:24:39.129Z,60.80
2022-10-13T16:27:07.212Z,60.60
2022-10-13T16:29:35.169Z,60.60
2022-10-13T16:32:03.017Z,60.60
2022-10-13T16:34:30.850Z,60.50
2022-10-13T16:36:59.050Z,60.40
2022-10-13T16:39:28.475Z,60.40
2022-10-13T16:41:56.377Z,60.40
2022-10-13T16:44:24.236Z,60.30
2022-10-13T16:46:53.781Z,60.40
2022-10-13T16:49:21.581Z,60.30
2022-10-13T16:51:49.478Z,60.30
2022-10-13T16:54:17.280Z,60.30
2022-10-13T16:56:46.819Z,60.20
2022-10-13T16:59:14.763Z,60.20
2022-10-13T17:01:42.560Z,60.20
2022-10-13T17:04:10.374Z,60.20
2022-10-13T17:06:39.394Z,60.30
2022-10-13T17:09:07.286Z,60.30
2022-10-13T17:11:37.130Z,60.30
2022-10-13T17:14:06.746Z,60.40
2022-10-13T17:16:35.841Z,60.50
2022-10-13T17:19:04.020Z,60.30
2022-10-13T17:21:31.857Z,60.30
2022-10-13T17:23:59.657Z,60.30
2022-10-13T17:26:27.485Z,60.30
2022-10-13T17:28:55.367Z,60.20
2022-10-13T17:31:25.447Z,60.20
2022-10-13T17:33:54.544Z,60.20
2022-10-13T17:36:24.023Z,60.20
2022-10-13T17:38:53.177Z,60.30
2022-10-13T17:41:21.365Z,60.20
2022-10-13T17:43:49.968Z,60.20
2022-10-13T17:46:37.523Z,60.20
2022-10-13T17:49:08.341Z,60.30
2022-10-13T17:51:36.249Z,60.30
2022-10-13T17:54:04.189Z,60.30
2022-10-13T17:56:32.078Z,60.30
2022-10-13T17:59:01.766Z,60.40
2022-10-13T18:01:31.463Z,60.50
2022-10-13T18:04:00.406Z,60.50
2022-10-13T18:06:36.839Z,60.50
2022-10-13T18:09:07.480Z,60.60
2022-10-13T18:11:36.018Z,60.60
2022-10-13T18:14:04.204Z,60.40
2022-10-13T18:16:32.093Z,60.40
2022-10-13T18:18:59.904Z,60.40
2022-10-13T18:21:29.453Z,60.20
2022-10-13T18:23:59.089Z,60.30
2022-10-13T18:26:29.265Z,60.20
2022-10-13T18:28:58.329Z,60.10
2022-10-13T18:31:28.276Z,60.20
2022-10-13T18:33:57.306Z,60.20
2022-10-13T18:36:27.018Z,60.20
2022-10-13T18:39:01.021Z,60.10
2022-10-13T18:41:28.977Z,60.20
2022-10-13T18:43:56.793Z,60.30
2022-10-13T18:46:25.884Z,60.30
2022-10-13T18:48:53.805Z,60.40
2022-10-13T18:51:21.630Z,60.40
2022-10-13T18:53:50.693Z,60.30
2022-10-13T18:56:22.153Z,60.20
2022-10-13T18:58:54.554Z,60.20
2022-10-13T19:01:27.813Z,60.10
2022-10-13T19:03:56.480Z,60.10
2022-10-13T19:06:27.115Z,60.00
2022-10-13T19:08:56.139Z,60.00
2022-10-13T19:11:25.908Z,60.10
2022-10-13T19:13:54.793Z,60.10
2022-10-13T19:16:24.295Z,60.00
2022-10-13T19:18:52.687Z,60.10
2022-10-13T19:21:22.050Z,60.10
2022-10-13T19:23:50.277Z,60.00
2022-10-13T19:26:20.120Z,59.90
2022-10-13T19:28:49.494Z,59.90
2022-10-13T19:31:20.227Z,59.80
2022-10-13T19:33:49.218Z,59.80
2022-10-13T19:36:23.017Z,59.80
2022-10-13T19:38:51.433Z,59.90
2022-10-13T19:41:19.777Z,59.90
2022-10-13T19:43:49.065Z,59.90
2022-10-13T19:46:16.998Z,59.90
2022-10-13T19:48:45.318Z,59.80
2022-10-13T19:51:13.650Z,59.90
2022-10-13T19:53:42.139Z,59.90
2022-10-13T19:56:19.215Z,59.80
2022-10-13T19:58:47.095Z,59.80
2022-10-13T20:01:16.374Z,59.80
2022-10-13T20:03:44.236Z,59.80
2022-10-13T20:06:12.277Z,59.80
2022-10-13T20:08:40.705Z,59.80
2022-10-13T20:11:09.753Z,59.80
2022-10-13T20:13:38.086Z,59.70
2022-10-13T20:16:07.424Z,59.70
2022-10-13T20:18:36.722Z,59.70
2022-10-13T20:21:05.439Z,59.80
2022-10-13T20:23:33.810Z,59.70
2022-10-13T20:26:03.801Z,59.70
2022-10-13T20:28:31.720Z,59.70
2022-10-13T20:31:02.245Z,59.70
2022-10-13T20:33:30.356Z,59.80
2022-10-13T20:36:01.294Z,59.80
2022-10-13T20:38:30.512Z,60.00
2022-10-13T20:41:05.142Z,60.10
2022-10-13T20:43:33.143Z,60.40
2022-10-13T20:46:02.237Z,60.40
2022-10-13T20:48:51.020Z,60.50
2022-10-13T20:51:23.376Z,60.50
2022-10-13T20:53:51.692Z,60.50
2022-10-13T20:56:22.053Z,60.50
2022-10-13T20:58:50.130Z,60.60
2022-10-13T21:01:18.755Z,60.60
2022-10-13T21:03:46.894Z,60.60
2022-10-13T21:06:15.674Z,60.70
2022-10-13T21:08:47.394Z,60.60
2022-10-13T21:11:17.409Z,60.70
2022-10-13T21:13:45.920Z,60.50
2022-10-13T21:16:15.988Z,60.60
2022-10-13T21:18:47.923Z,60.70
2022-10-13T21:21:17.124Z,60.70
2022-10-13T21:23:46.444Z,60.70
2022-10-13T21:26:18.860Z,60.80
2022-10-13T21:28:49.235Z,60.90
2022-10-13T21:31:18.094Z,60.90
2022-10-13T21:33:46.152Z,61.00
2022-10-13T21:36:15.842Z,60.90
2022-10-13T21:38:46.725Z,60.80
2022-10-13T21:41:15.678Z,60.90
2022-10-13T21:43:43.513Z,60.90
2022-10-13T21:46:12.193Z,60.90
2022-10-13T21:48:40.316Z,61.10
2022-10-13T21:51:12.969Z,61.10
2022-10-13T21:53:40.859Z,61.40
2022-10-13T21:56:11.567Z,61.20
2022-10-13T21:58:39.841Z,61.50
2022-10-13T22:01:08.006Z,61.50
2022-10-13T22:03:36.229Z,61.70
2022-10-13T22:06:08.153Z,61.60
2022-10-13T22:08:39.112Z,61.80
2022-10-13T22:11:09.033Z,61.70
2022-10-13T22:13:39.117Z,61.90
2022-10-13T22:16:09.230Z,61.80
2022-10-13T22:18:37.351Z,61.80
2022-10-13T22:21:08.169Z,61.90
2022-10-13T22:23:36.005Z,62.00
2022-10-13T22:26:03.918Z,62.00
2022-10-13T22:28:36.888Z,62.10
2022-10-13T22:31:08.157Z,62.20
2022-10-13T22:33:37.683Z,62.30
2022-10-13T22:36:09.039Z,62.30
2022-10-13T22:38:37.205Z,62.30
2022-10-13T22:41:06.213Z,62.30
2022-10-13T22:43:34.341Z,62.30
2022-10-13T22:46:02.822Z,62.40
2022-10-13T22:48:34.743Z,62.40
2022-10-13T22:51:05.205Z,62.50
2022-10-13T22:53:33.362Z,62.40
2022-10-13T22:56:01.870Z,62.40
2022-10-13T22:58:29.717Z,62.40
2022-10-13T23:00:57.502Z,62.50
2022-10-13T23:03:25.352Z,62.50
2022-10-13T23:05:54.598Z,62.50
2022-10-13T23:08:22.452Z,62.50
2022-10-13T23:10:50.384Z,62.40
2022-10-13T23:13:18.214Z,62.40
2022-10-13T23:15:46.080Z,62.40
2022-10-13T23:18:14.413Z,62.40
2022-10-13T23:20:42.734Z,62.40
2022-10-13T23:23:11.880Z,62.40
2022-10-13T23:25:39.707Z,62.40
2022-10-13T23:28:07.516Z,62.40
2022-10-13T23:30:35.313Z,62.40
2022-10-13T23:33:03.132Z,62.50
2022-10-13T23:35:31.026Z,62.50
2022-10-13T23:37:58.852Z,62.50
2022-10-13T23:40:27.993Z,62.50
2022-10-13T23:42:55.795Z,62.50
2022-10-13T23:45:23.605Z,62.40
2022-10-13T23:47:51.409Z,62.50
2022-10-13T23:50:19.234Z,62.40
2022-10-13T23:52:47.021Z,62.50
2022-10-13T23:55:14.884Z,62.50
2022-10-13T23:57:44.046Z,62.50
